Time;durP1;ratioP1;P1;durP2;ratioP2;P2;SDS_P1;SDS_P2;PMS_P1;PMS_P2;Temp;Humidity;BMP_temperature;BMP_pressure;BME280_temperature;BME280_humidity;BME280_pressure;Samples;Min_cycle;Max_cycle;Signal;HPM_P1;HPM_P2
2024/01/18 00:01:48;;;;;;;0.00;0.00;;;;;;;1.36;100.00;96515.88;5032875;28;20279;-53
2024/01/18 00:04:34;;;;;;;0.00;0.00;;;;;;;1.30;100.00;96513.69;5032897;28;20556;-53
2024/01/18 00:07:22;;;;;;;0.10;0.10;;;;;;;1.49;100.00;96525.44;5042350;28;20320;-53
2024/01/18 00:10:10;;;;;;;0.10;0.10;;;;;;;1.54;100.00;96536.34;5052700;28;20192;-53
2024/01/18 00:12:58;;;;;;;0.10;0.10;;;;;;;1.55;100.00;96554.53;5051314;28;20200;-53
2024/01/18 00:15:45;;;;;;;0.10;0.10;;;;;;;1.34;100.00;96561.22;5052291;28;20220;-53
2024/01/18 00:18:32;;;;;;;0.10;0.10;;;;;;;1.27;100.00;96565.19;5014678;28;20201;-53
2024/01/18 00:21:19;;;;;;;0.03;0.03;;;;;;;1.48;100.00;96566.31;5013183;28;20276;-53
2024/01/18 00:24:06;;;;;;;0.10;0.10;;;;;;;1.38;100.00;96560.91;5012999;28;20348;-53
2024/01/18 00:26:53;;;;;;;0.10;0.10;;;;;;;1.31;100.00;96564.88;5022915;28;20200;-53
2024/01/18 00:29:41;;;;;;;0.10;0.10;;;;;;;1.44;100.00;96562.25;5052565;28;20204;-53
2024/01/18 00:32:28;;;;;;;0.00;0.00;;;;;;;1.14;100.00;96558.19;5052559;28;20216;-53
2024/01/18 00:35:15;;;;;;;0.10;0.10;;;;;;;1.37;100.00;96558.41;5052286;28;20218;-53
2024/01/18 00:38:02;;;;;;;0.10;0.10;;;;;;;1.24;100.00;96561.00;5025906;28;20244;-52
2024/01/18 00:40:49;;;;;;;0.03;0.03;;;;;;;1.27;100.00;96580.84;5016659;28;20208;-53
2024/01/18 00:43:36;;;;;;;0.03;0.03;;;;;;;1.14;100.00;96573.00;5015336;28;20233;-53
2024/01/18 00:46:24;;;;;;;0.10;0.10;;;;;;;1.13;100.00;96576.56;5018272;28;20200;-53
2024/01/18 00:49:11;;;;;;;0.10;0.10;;;;;;;1.61;100.00;96566.28;5056194;28;20737;-53
2024/01/18 00:51:58;;;;;;;0.10;0.10;;;;;;;1.30;100.00;96585.84;5056104;28;20258;-53
2024/01/18 00:54:45;;;;;;;0.10;0.10;;;;;;;1.23;100.00;96593.22;5055962;28;20223;-53
2024/01/18 00:57:33;;;;;;;0.10;0.10;;;;;;;1.17;100.00;96582.41;5046977;28;20200;-53
2024/01/18 01:00:20;;;;;;;0.10;0.10;;;;;;;1.45;100.00;96590.00;5055809;28;20191;-53
2024/01/18 01:03:08;;;;;;;0.10;0.10;;;;;;;1.41;100.00;96584.16;5055544;28;20251;-53
2024/01/18 01:05:55;;;;;;;0.10;0.10;;;;;;;1.36;100.00;96591.47;5055791;28;20197;-53
2024/01/18 01:08:42;;;;;;;0.07;0.07;;;;;;;1.17;100.00;96600.66;5016502;28;20237;-53
2024/01/18 01:11:29;;;;;;;0.10;0.10;;;;;;;1.46;100.00;96603.88;5016062;28;20194;-53
2024/01/18 01:14:16;;;;;;;0.10;0.10;;;;;;;1.12;100.00;96593.97;5015064;28;20213;-53
2024/01/18 01:17:03;;;;;;;0.10;0.10;;;;;;;1.31;100.00;96597.94;5027565;28;20203;-53
2024/01/18 01:19:51;;;;;;;0.10;0.10;;;;;;;1.19;100.00;96581.34;5055679;28;20189;-53
2024/01/18 01:22:38;;;;;;;0.10;0.10;;;;;;;1.00;100.00;96591.34;5055625;28;20312;-53
2024/01/18 01:25:25;;;;;;;0.10;0.10;;;;;;;1.24;100.00;96592.28;5055441;28;20188;-53
2024/01/18 01:28:11;;;;;;;0.00;0.00;;;;;;;1.01;100.00;96600.84;5023863;28;20288;-53
2024/01/18 01:30:58;;;;;;;0.10;0.10;;;;;;;1.27;100.00;96609.50;5015817;28;20204;-53
2024/01/18 01:33:46;;;;;;;0.10;0.10;;;;;;;0.90;100.00;96611.16;5015664;28;20213;-53
2024/01/18 01:36:34;;;;;;;0.10;0.10;;;;;;;0.97;100.00;96615.84;5018620;28;20272;-53
2024/01/18 01:39:21;;;;;;;0.10;0.10;;;;;;;0.95;100.00;96611.66;5055535;28;20196;-53
2024/01/18 01:42:09;;;;;;;0.10;0.10;;;;;;;0.80;100.00;96629.97;5047479;28;20219;-53
2024/01/18 01:44:56;;;;;;;0.10;0.10;;;;;;;1.15;100.00;96634.59;5055139;28;20252;-53
2024/01/18 01:47:43;;;;;;;0.00;0.00;;;;;;;1.21;100.00;96642.03;5032939;28;20201;-52
2024/01/18 01:50:29;;;;;;;0.10;0.10;;;;;;;1.24;100.00;96639.22;5014809;28;20209;-53
2024/01/18 01:53:19;;;;;;;0.10;0.10;;;;;;;1.00;100.00;96641.69;5034206;28;20221;-53
2024/01/18 01:56:06;;;;;;;0.00;0.00;;;;;;;0.84;100.00;96652.28;5034965;28;20703;-53
2024/01/18 01:58:53;;;;;;;0.00;0.00;;;;;;;0.92;100.00;96656.16;5013816;28;20280;-53
2024/01/18 02:01:42;;;;;;;0.10;0.10;;;;;;;0.75;100.00;96657.25;5014965;28;20200;-53
2024/01/18 02:04:29;;;;;;;0.00;0.00;;;;;;;0.90;100.00;96656.28;5015097;28;20197;-52
2024/01/18 02:07:16;;;;;;;0.00;0.00;;;;;;;1.12;100.00;96659.13;5028741;28;20216;-53
2024/01/18 02:10:06;;;;;;;0.10;0.10;;;;;;;1.02;100.00;96662.44;5054649;28;20219;-53
2024/01/18 02:12:54;;;;;;;0.00;0.00;;;;;;;0.93;100.00;96665.66;5053422;28;20226;-53
2024/01/18 02:15:42;;;;;;;0.00;0.00;;;;;;;1.18;100.00;96652.66;5054295;28;20216;-53
2024/01/18 02:18:29;;;;;;;0.03;0.03;;;;;;;1.19;100.00;96650.91;5020957;28;20205;-53
2024/01/18 02:21:16;;;;;;;0.00;0.00;;;;;;;0.93;100.00;96657.81;5014836;28;20194;-53
2024/01/18 02:24:11;;;;;;;0.10;0.10;;;;;;;1.03;100.00;96661.50;5014540;28;20201;-53
2024/01/18 02:27:00;;;;;;;0.10;0.10;;;;;;;1.10;100.00;96654.94;5021747;28;20212;-53
2024/01/18 02:29:47;;;;;;;0.10;0.10;;;;;;;1.04;100.00;96663.16;5054352;28;20188;-53
2024/01/18 02:32:34;;;;;;;0.10;0.10;;;;;;;1.00;100.00;96669.53;5054359;28;20189;-53
2024/01/18 02:35:22;;;;;;;0.00;0.00;;;;;;;1.11;100.00;96661.81;5054126;28;20219;-53
2024/01/18 02:38:08;;;;;;;0.10;0.10;;;;;;;1.05;100.00;96665.66;5026808;28;20206;-53
2024/01/18 02:40:55;;;;;;;0.10;0.10;;;;;;;1.00;100.00;96662.53;5014539;28;20688;-53
2024/01/18 02:43:44;;;;;;;0.10;0.10;;;;;;;1.10;100.00;96650.56;5013017;28;20221;-53
2024/01/18 02:46:32;;;;;;;0.10;0.10;;;;;;;1.06;100.00;96656.06;5014584;28;20198;-53
2024/01/18 02:49:19;;;;;;;0.00;0.00;;;;;;;1.28;100.00;96656.34;5054022;28;20295;-53
2024/01/18 02:52:07;;;;;;;0.10;0.10;;;;;;;1.13;100.00;96652.13;5054005;28;20303;-53
2024/01/18 02:54:53;;;;;;;0.10;0.10;;;;;;;1.17;100.00;96653.63;5053733;28;20200;-53
2024/01/18 02:57:41;;;;;;;0.10;0.10;;;;;;;0.97;100.00;96660.16;5046914;28;20195;-53
2024/01/18 03:00:29;;;;;;;0.10;0.10;;;;;;;0.79;100.00;96671.78;5053394;28;20263;-53
2024/01/18 03:03:16;;;;;;;0.00;0.00;;;;;;;1.25;100.00;96673.94;5053484;28;20272;-53
2024/01/18 03:06:03;;;;;;;0.10;0.10;;;;;;;0.92;100.00;96669.19;5053705;28;20191;-53
2024/01/18 03:08:50;;;;;;;0.10;0.10;;;;;;;0.61;100.00;96665.97;5015759;28;20333;-53
2024/01/18 03:11:37;;;;;;;0.10;0.10;;;;;;;0.77;100.00;96665.78;5013859;28;20301;-52
2024/01/18 03:14:24;;;;;;;0.10;0.10;;;;;;;1.02;100.00;96665.88;5013848;28;20194;-53
2024/01/18 03:17:12;;;;;;;0.00;0.00;;;;;;;0.93;100.00;96661.25;5023813;28;20216;-53
2024/01/18 03:19:59;;;;;;;0.10;0.10;;;;;;;0.93;100.00;96674.28;5053436;28;20691;-53
2024/01/18 03:22:46;;;;;;;0.10;0.10;;;;;;;0.81;100.00;96675.94;5053290;28;20303;-53
2024/01/18 03:25:33;;;;;;;0.10;0.10;;;;;;;0.80;100.00;96681.25;5053355;28;20184;-53
2024/01/18 03:28:20;;;;;;;0.10;0.10;;;;;;;1.08;100.00;96675.91;5023196;28;20307;-53
2024/01/18 03:31:10;;;;;;;0.10;0.10;;;;;;;1.25;100.00;96681.75;5012677;28;20205;-53
2024/01/18 03:33:59;;;;;;;0.10;0.10;;;;;;;0.90;100.00;96687.53;5013502;28;20189;-52
2024/01/18 03:36:46;;;;;;;0.00;0.00;;;;;;;1.14;100.00;96677.25;5016047;28;20281;-53
2024/01/18 03:39:35;;;;;;;0.00;0.00;;;;;;;0.88;100.00;96683.38;5053066;28;20270;-53
2024/01/18 03:42:22;;;;;;;0.10;0.10;;;;;;;0.96;100.00;96686.28;5051824;28;20220;-53
2024/01/18 03:45:10;;;;;;;0.10;0.10;;;;;;;1.00;100.00;96693.81;5047779;28;20204;-53
2024/01/18 03:47:57;;;;;;;0.10;0.10;;;;;;;1.01;100.00;96694.66;5024367;28;20295;-53
2024/01/18 03:50:45;;;;;;;0.00;0.00;;;;;;;1.34;100.00;96702.81;5033063;28;20263;-53
2024/01/18 03:53:32;;;;;;;0.10;0.10;;;;;;;0.90;100.00;96710.97;5032891;28;20213;-53
2024/01/18 03:56:19;;;;;;;0.00;0.00;;;;;;;0.73;100.00;96700.81;5032688;28;20228;-53
2024/01/18 03:59:06;;;;;;;0.03;0.03;;;;;;;0.70;100.00;96668.00;5029871;28;20204;-53
2024/01/18 04:01:53;;;;;;;0.10;0.10;;;;;;;0.71;100.00;96650.59;5032473;28;20236;-53
2024/01/18 04:04:40;;;;;;;0.00;0.00;;;;;;;0.88;100.00;96665.97;5032903;28;20730;-53
2024/01/18 04:07:28;;;;;;;0.10;0.10;;;;;;;0.48;100.00;96678.09;5039464;28;20303;-53
2024/01/18 04:10:14;;;;;;;0.00;0.00;;;;;;;0.43;100.00;96651.53;5052556;28;20196;-53
2024/01/18 04:13:02;;;;;;;0.00;0.00;;;;;;;0.44;100.00;96666.22;5054288;28;20200;-53
2024/01/18 04:15:49;;;;;;;0.10;0.10;;;;;;;0.57;100.00;96667.91;5056850;28;20208;-53
2024/01/18 04:18:36;;;;;;;0.10;0.10;;;;;;;0.60;100.00;96671.28;5024776;28;20204;-53
2024/01/18 04:21:23;;;;;;;0.00;0.00;;;;;;;0.50;100.00;96658.84;5017168;28;20257;-53
2024/01/18 04:24:11;;;;;;;0.10;0.10;;;;;;;0.54;100.00;96668.13;5017019;28;20193;-53
2024/01/18 04:26:58;;;;;;;0.10;0.10;;;;;;;0.78;100.00;96673.53;5020217;28;20197;-53
2024/01/18 04:29:45;;;;;;;0.10;0.10;;;;;;;1.06;100.00;96680.38;5056655;28;20203;-53
2024/01/18 04:32:32;;;;;;;0.10;0.10;;;;;;;0.74;100.00;96676.44;5056591;28;20196;-52
2024/01/18 04:35:19;;;;;;;0.10;0.10;;;;;;;1.01;100.00;96679.84;5056341;28;20243;-52
2024/01/18 04:38:06;;;;;;;0.10;0.10;;;;;;;0.68;100.00;96697.69;5033399;28;20580;-53
2024/01/18 04:40:54;;;;;;;0.10;0.10;;;;;;;0.75;100.00;96689.34;5016705;28;20268;-53
2024/01/18 04:43:42;;;;;;;0.00;0.00;;;;;;;0.82;100.00;96692.41;5015219;28;20209;-53
2024/01/18 04:46:30;;;;;;;0.00;0.00;;;;;;;1.00;100.00;96706.84;5016639;28;20193;-53
2024/01/18 04:49:17;;;;;;;0.10;0.10;;;;;;;0.89;100.00;96695.44;5056331;28;20303;-53
2024/01/18 04:52:04;;;;;;;0.10;0.10;;;;;;;0.68;100.00;96695.91;5055943;28;20204;-53
2024/01/18 04:54:51;;;;;;;0.10;0.10;;;;;;;0.65;100.00;96696.06;5056165;28;20200;-53
2024/01/18 04:57:40;;;;;;;0.10;0.10;;;;;;;0.50;100.00;96702.28;5039609;28;20249;-53
2024/01/18 05:00:27;;;;;;;0.10;0.10;;;;;;;0.39;100.00;96702.97;5016175;28;20205;-53
2024/01/18 05:03:13;;;;;;;0.10;0.10;;;;;;;0.98;100.00;96724.34;5028549;28;20303;-53
2024/01/18 05:06:01;;;;;;;0.00;0.00;;;;;;;0.73;100.00;96730.28;5040928;28;20192;-53
2024/01/18 05:08:48;;;;;;;0.10;0.10;;;;;;;0.83;100.00;96743.56;5038798;28;20232;-53
2024/01/18 05:11:34;;;;;;;0.00;0.00;;;;;;;1.17;100.00;96749.22;5036042;28;20197;-53
2024/01/18 05:14:22;;;;;;;0.10;0.10;;;;;;;1.04;100.00;96751.75;5035780;28;20683;-53
2024/01/18 05:17:12;;;;;;;0.10;0.10;;;;;;;1.22;100.00;96761.00;5038683;28;20280;-53
2024/01/18 05:19:59;;;;;;;0.10;0.10;;;;;;;1.26;100.00;96753.84;5055677;28;20247;-53
2024/01/18 05:22:46;;;;;;;0.10;0.10;;;;;;;0.80;100.00;96762.00;5055310;28;20204;-53
2024/01/18 05:25:33;;;;;;;0.10;0.10;;;;;;;0.68;100.00;96758.41;5055343;28;20200;-53
2024/01/18 05:28:20;;;;;;;0.00;0.00;;;;;;;0.68;100.00;96762.78;5041335;28;20200;-53
2024/01/18 05:31:08;;;;;;;0.10;0.10;;;;;;;0.97;100.00;96774.78;5035517;28;20704;-53
2024/01/18 05:33:56;;;;;;;0.10;0.10;;;;;;;0.91;100.00;96775.19;5035331;28;20213;-53
2024/01/18 05:36:43;;;;;;;0.10;0.10;;;;;;;0.55;100.00;96779.16;5035265;28;20272;-53
2024/01/18 05:39:30;;;;;;;0.00;0.00;;;;;;;0.73;100.00;96774.56;5015630;28;20264;-52
2024/01/18 05:42:18;;;;;;;0.10;0.10;;;;;;;0.46;100.00;96782.31;5013923;28;20229;-52
2024/01/18 05:45:06;;;;;;;0.10;0.10;;;;;;;0.51;100.00;96782.91;5052292;28;20712;-53
2024/01/18 05:47:55;;;;;;;0.10;0.10;;;;;;;0.24;100.00;96787.19;5046542;28;20217;-53
2024/01/18 05:50:42;;;;;;;0.10;0.10;;;;;;;0.16;100.00;96792.00;5035170;28;20305;-53
2024/01/18 05:53:30;;;;;;;0.10;0.10;;;;;;;0.50;100.00;96791.63;5035142;28;20200;-53
2024/01/18 05:56:17;;;;;;;0.10;0.10;;;;;;;0.24;100.00;96801.03;5034989;28;20256;-52
2024/01/18 05:59:04;;;;;;;0.10;0.10;;;;;;;-0.01;100.00;96806.88;5052043;28;20192;-53
2024/01/18 06:01:50;;;;;;;0.10;0.10;;;;;;;-0.13;100.00;96810.19;5054842;28;20233;-53
2024/01/18 06:04:39;;;;;;;0.10;0.10;;;;;;;-0.10;100.00;96816.97;5054838;28;20300;-53
2024/01/18 06:07:26;;;;;;;0.10;0.10;;;;;;;-0.21;100.00;96817.63;5033348;28;20192;-52
2024/01/18 06:10:12;;;;;;;0.00;0.00;;;;;;;-0.01;100.00;96819.03;5034801;28;20197;-53
2024/01/18 06:12:59;;;;;;;0.00;0.00;;;;;;;-0.18;100.00;96820.06;5018417;28;20212;-52
2024/01/18 06:15:46;;;;;;;0.00;0.00;;;;;;;-0.18;100.00;96821.81;5034748;28;20259;-53
2024/01/18 06:18:33;;;;;;;0.10;0.10;;;;;;;0.14;100.00;96820.75;5019244;28;20216;-52
2024/01/18 06:21:21;;;;;;;0.10;0.10;;;;;;;0.18;100.00;96829.19;5034762;28;20237;-53
2024/01/18 06:24:08;;;;;;;0.10;0.10;;;;;;;0.43;100.00;96837.19;5034537;28;20196;-53
2024/01/18 06:26:56;;;;;;;0.10;0.10;;;;;;;0.53;100.00;96843.53;5033454;28;20192;-53
2024/01/18 06:29:43;;;;;;;0.10;0.10;;;;;;;0.45;100.00;96853.56;5054496;28;20196;-52
2024/01/18 06:32:30;;;;;;;0.10;0.10;;;;;;;0.26;100.00;96856.44;5054231;28;20443;-53
2024/01/18 06:35:17;;;;;;;0.10;0.10;;;;;;;0.65;100.00;96867.13;5053545;28;20204;-53
2024/01/18 06:38:06;;;;;;;0.00;0.00;;;;;;;0.84;100.00;96863.28;5034839;28;20222;-53
2024/01/18 06:40:54;;;;;;;0.10;0.10;;;;;;;0.58;100.00;96869.28;5014504;28;20198;-53
2024/01/18 06:43:40;;;;;;;0.10;0.10;;;;;;;0.90;100.00;96872.50;5013019;28;20305;-52
2024/01/18 06:46:29;;;;;;;0.03;0.03;;;;;;;0.29;100.00;96871.06;5014286;28;20317;-52
2024/01/18 06:49:16;;;;;;;0.00;0.00;;;;;;;0.78;100.00;96876.72;5052505;28;20762;-52
2024/01/18 06:52:04;;;;;;;0.07;0.07;;;;;;;0.47;100.00;96882.94;5053929;28;20375;-53
2024/01/18 06:54:52;;;;;;;0.10;0.10;;;;;;;0.21;100.00;96874.09;5053803;28;20204;-53
2024/01/18 06:57:39;;;;;;;0.10;0.10;;;;;;;0.20;100.00;96887.22;5040766;28;20776;-53
2024/01/18 07:00:26;;;;;;;0.00;0.00;;;;;;;0.22;100.00;96883.56;5014099;28;20264;-53
2024/01/18 07:03:14;;;;;;;0.10;0.10;;;;;;;0.16;100.00;96890.91;5012768;28;20230;-53
2024/01/18 07:06:01;;;;;;;0.10;0.10;;;;;;;0.29;100.00;96907.50;5013994;28;20194;-53
2024/01/18 07:08:48;;;;;;;0.10;0.10;;;;;;;0.33;100.00;96903.75;5023382;28;20190;-53
2024/01/18 07:11:38;;;;;;;0.10;0.10;;;;;;;0.63;100.00;96898.47;5013879;28;20202;-53
2024/01/18 07:14:24;;;;;;;0.10;0.10;;;;;;;0.42;100.00;96907.59;5013887;28;20205;-53
2024/01/18 07:17:12;;;;;;;0.10;0.10;;;;;;;0.45;100.00;96904.78;5017226;28;20304;-53
2024/01/18 07:19:59;;;;;;;0.07;0.07;;;;;;;0.25;100.00;96900.78;5053560;28;20251;-52
2024/01/18 07:22:46;;;;;;;0.10;0.10;;;;;;;0.24;100.00;96914.72;5053386;28;20207;-53
2024/01/18 07:25:33;;;;;;;0.10;0.10;;;;;;;0.32;100.00;96924.69;5053479;28;20196;-52
2024/01/18 07:28:21;;;;;;;0.10;0.10;;;;;;;0.24;100.00;96923.34;5030258;28;20269;-53
2024/01/18 07:31:07;;;;;;;0.10;0.10;;;;;;;0.09;100.00;96928.63;5013520;28;20197;-53
2024/01/18 07:33:54;;;;;;;0.10;0.10;;;;;;;0.04;100.00;96933.25;5013709;28;20190;-53
2024/01/18 07:36:41;;;;;;;0.00;0.00;;;;;;;-0.09;100.00;96928.78;5014994;28;20209;-53
2024/01/18 07:39:28;;;;;;;0.00;0.00;;;;;;;0.07;100.00;96933.06;5013156;28;20217;-52
2024/01/18 07:42:17;;;;;;;0.00;0.00;;;;;;;0.34;100.00;96933.22;5012092;28;20700;-53
2024/01/18 07:45:07;;;;;;;0.10;0.10;;;;;;;0.22;100.00;96932.19;5013375;28;20707;-52
2024/01/18 07:47:54;;;;;;;0.10;0.10;;;;;;;0.06;100.00;96927.03;5020181;28;20193;-53
2024/01/18 07:50:43;;;;;;;0.00;0.00;;;;;;;0.24;100.00;96928.56;5033041;28;20192;-53
2024/01/18 07:53:29;;;;;;;0.10;0.10;;;;;;;0.05;100.00;96942.75;5032877;28;20201;-53
2024/01/18 07:56:16;;;;;;;0.10;0.10;;;;;;;0.21;100.00;96930.53;5033040;28;20200;-53
2024/01/18 07:59:03;;;;;;;0.10;0.10;;;;;;;0.20;100.00;96934.06;5048133;28;20216;-53
2024/01/18 08:01:51;;;;;;;0.10;0.10;;;;;;;0.20;100.00;96932.28;5052611;28;20267;-53
2024/01/18 08:04:38;;;;;;;0.10;0.10;;;;;;;0.21;100.00;96940.94;5052762;28;20195;-53
2024/01/18 08:07:25;;;;;;;0.10;0.10;;;;;;;0.12;100.00;96939.69;5047070;28;20213;-52
2024/01/18 08:10:12;;;;;;;0.10;0.10;;;;;;;0.67;100.00;96944.22;5012984;28;20194;-53
2024/01/18 08:13:01;;;;;;;0.10;0.10;;;;;;;0.31;100.00;96946.44;5011938;28;20193;-52
2024/01/18 08:15:48;;;;;;;0.10;0.10;;;;;;;0.64;100.00;96954.84;5020899;28;20205;-52
2024/01/18 08:18:37;;;;;;;0.10;0.10;;;;;;;0.53;100.00;96952.88;5044589;28;20211;-52
2024/01/18 08:21:24;;;;;;;0.10;0.10;;;;;;;0.52;100.00;96953.81;5052632;28;20197;-52
2024/01/18 08:24:11;;;;;;;0.00;0.00;;;;;;;0.52;100.00;96948.59;5052681;28;20279;-52
2024/01/18 08:26:58;;;;;;;0.10;0.10;;;;;;;0.88;100.00;96952.53;5051017;28;20200;-53
2024/01/18 08:29:47;;;;;;;0.10;0.10;;;;;;;0.39;100.00;96960.69;5013032;28;20679;-53
2024/01/18 08:32:34;;;;;;;0.10;0.10;;;;;;;0.68;100.00;96961.56;5013003;28;20216;-52
2024/01/18 08:35:23;;;;;;;0.10;0.10;;;;;;;0.62;100.00;96967.13;5012700;28;20373;-53
2024/01/18 08:38:10;;;;;;;0.00;0.00;;;;;;;0.67;100.00;96965.06;5021237;28;20208;-52
2024/01/18 08:40:57;;;;;;;0.10;0.10;;;;;;;1.20;100.00;96967.97;5032465;28;20200;-52
2024/01/18 08:43:44;;;;;;;0.00;0.00;;;;;;;1.09;100.00;96968.63;5031004;28;20196;-52
2024/01/18 08:46:31;;;;;;;0.00;0.00;;;;;;;0.99;100.00;96967.53;5032611;28;20244;-52
2024/01/18 08:49:18;;;;;;;0.00;0.00;;;;;;;1.26;100.00;96960.63;5050074;28;20196;-53
2024/01/18 08:52:07;;;;;;;0.10;0.10;;;;;;;0.89;100.00;96969.84;5052063;28;20188;-52
2024/01/18 08:54:54;;;;;;;0.10;0.10;;;;;;;0.81;100.00;96962.50;5052431;28;20357;-53
2024/01/18 08:57:40;;;;;;;0.10;0.10;;;;;;;0.89;100.00;96961.19;5043205;28;20300;-52
2024/01/18 09:00:27;;;;;;;0.10;0.10;;;;;;;0.92;100.00;96974.88;5015946;28;20676;-53
2024/01/18 09:03:15;;;;;;;0.10;0.10;;;;;;;0.86;100.00;96967.41;5028901;28;20747;-53
2024/01/18 09:06:06;;;;;;;0.10;0.10;;;;;;;0.75;100.00;96977.63;5036135;28;20193;-52
2024/01/18 09:08:55;;;;;;;0.00;0.00;;;;;;;0.87;100.00;96984.75;5048915;28;20204;-52
2024/01/18 09:11:43;;;;;;;0.10;0.10;;;;;;;0.68;100.00;96992.81;5014907;28;20202;-53
2024/01/18 09:14:30;;;;;;;0.10;0.10;;;;;;;0.94;100.00;96995.63;5016101;28;20691;-53
2024/01/18 09:17:17;;;;;;;0.10;0.10;;;;;;;1.00;100.00;96998.69;5017268;28;20198;-52
2024/01/18 09:20:05;;;;;;;0.10;0.10;;;;;;;0.63;100.00;97010.47;5055439;28;20215;-53
2024/01/18 09:22:51;;;;;;;0.00;0.00;;;;;;;0.63;100.00;97012.22;5055748;28;20235;-52
2024/01/18 09:26:00;;;;;;;0.10;0.10;;;;;;;1.10;100.00;97022.44;5055590;28;20196;-52
2024/01/18 09:28:46;;;;;;;0.00;0.00;;;;;;;1.11;100.00;97019.72;5041374;28;20321;-52
2024/01/18 09:31:33;;;;;;;0.10;0.10;;;;;;;1.09;100.00;97023.38;5035401;28;20196;-52
2024/01/18 09:34:28;;;;;;;0.10;0.10;;;;;;;1.19;100.00;97028.88;5035529;28;20189;-53
2024/01/18 09:37:15;;;;;;;0.00;0.00;;;;;;;1.20;100.00;97040.97;5035485;28;20271;-52
2024/01/18 09:40:02;;;;;;;0.00;0.00;;;;;;;1.37;100.00;97044.22;5054918;28;20242;-53
2024/01/18 09:42:51;;;;;;;0.00;0.00;;;;;;;1.04;100.00;97044.47;5050625;28;20199;-52
2024/01/18 09:45:43;;;;;;;0.00;0.00;;;;;;;1.16;100.00;97058.56;5055267;28;20247;-52
2024/01/18 09:48:30;;;;;;;0.00;0.00;;;;;;;1.12;100.00;97064.88;5044791;28;20240;-52
2024/01/18 09:51:21;;;;;;;0.00;0.00;;;;;;;1.37;100.00;97069.47;5035255;28;20204;-52
2024/01/18 09:54:08;;;;;;;0.10;0.10;;;;;;;1.24;100.00;97079.78;5035174;28;20197;-52
2024/01/18 09:56:55;;;;;;;0.10;0.10;;;;;;;1.46;100.00;97081.94;5033945;28;20196;-52
2024/01/18 09:59:45;;;;;;;0.10;0.10;;;;;;;1.90;100.00;97091.41;5054637;28;20227;-53
2024/01/18 10:02:32;;;;;;;0.00;0.00;;;;;;;1.99;100.00;97096.88;5054785;28;20223;-52
2024/01/18 10:05:19;;;;;;;0.10;0.10;;;;;;;1.70;100.00;97090.03;5054946;28;20204;-52
2024/01/18 10:08:06;;;;;;;0.10;0.10;;;;;;;2.17;100.00;97097.50;5041546;28;20198;-53
2024/01/18 10:10:54;;;;;;;0.00;0.00;;;;;;;2.32;100.00;97106.13;5013990;28;20189;-52
2024/01/18 10:13:54;;;;;;;0.10;0.10;;;;;;;2.37;100.00;97093.59;5013803;28;20257;-52
2024/01/18 10:16:42;;;;;;;0.10;0.10;;;;;;;2.30;100.00;97105.38;5014873;28;20206;-53
2024/01/18 10:19:29;;;;;;;0.00;0.00;;;;;;;2.45;100.00;97114.00;5050290;28;20324;-52
2024/01/18 10:22:16;;;;;;;0.10;0.10;;;;;;;2.08;100.00;97116.34;5046250;28;20193;-52
2024/01/18 10:25:04;;;;;;;0.10;0.10;;;;;;;2.28;100.00;97120.31;5034735;28;20196;-52
2024/01/18 10:27:52;;;;;;;0.00;0.00;;;;;;;2.34;100.00;97117.31;5033022;28;20192;-52
2024/01/18 10:30:39;;;;;;;0.10;0.10;;;;;;;2.54;100.00;97110.81;5034445;28;20268;-52
2024/01/18 10:33:29;;;;;;;0.10;0.10;;;;;;;2.42;100.00;97112.44;5034474;28;20197;-52
2024/01/18 10:36:18;;;;;;;0.10;0.10;;;;;;;2.67;100.00;97118.69;5033882;28;20263;-53
2024/01/18 10:39:16;;;;;;;0.10;0.10;;;;;;;3.10;100.00;97135.00;5034176;28;20209;-52
2024/01/18 10:42:07;;;;;;;0.10;0.10;;;;;;;3.42;100.00;97132.84;5032872;28;20201;-53
2024/01/18 10:44:53;;;;;;;0.10;0.10;;;;;;;3.38;100.00;97131.38;5034126;28;20340;-52
2024/01/18 10:47:40;;;;;;;0.10;0.10;;;;;;;3.33;100.00;97123.84;5036454;28;20192;-53
2024/01/18 10:50:31;;;;;;;0.10;0.10;;;;;;;3.22;100.00;97139.41;5054010;28;20193;-52
2024/01/18 10:53:19;;;;;;;0.03;0.03;;;;;;;3.19;100.00;97142.25;5053909;28;20192;-52
2024/01/18 10:56:06;;;;;;;0.10;0.10;;;;;;;2.95;100.00;97143.84;5053887;28;20201;-52
2024/01/18 10:58:53;;;;;;;0.10;0.10;;;;;;;2.86;100.00;97153.13;5027846;28;20201;-52
2024/01/18 11:01:41;;;;;;;0.10;0.10;;;;;;;3.24;100.00;97155.00;5014096;28;20213;-53
2024/01/18 11:04:31;;;;;;;0.10;0.10;;;;;;;3.21;100.00;97144.75;5014127;28;20617;-52
2024/01/18 11:07:20;;;;;;;0.10;0.10;;;;;;;2.87;100.00;97158.25;5013963;28;20684;-52
2024/01/18 11:10:10;;;;;;;0.10;0.10;;;;;;;2.94;100.00;97170.94;5033510;28;20244;-52
2024/01/18 11:12:58;;;;;;;0.10;0.10;;;;;;;3.07;100.00;97174.41;5017451;28;20196;-52
2024/01/18 11:15:47;;;;;;;0.10;0.10;;;;;;;3.26;100.00;97174.03;5033476;28;20197;-53
2024/01/18 11:18:35;;;;;;;0.10;0.10;;;;;;;3.20;100.00;97184.94;5033382;28;20192;-53
2024/01/18 11:21:27;;;;;;;0.10;0.10;;;;;;;3.04;100.00;97185.94;5032649;28;20267;-53
2024/01/18 11:24:15;;;;;;;0.00;0.00;;;;;;;3.10;100.00;97187.31;5033107;28;20255;-53
2024/01/18 11:27:17;;;;;;;0.00;0.00;;;;;;;2.98;100.00;97196.78;5031968;28;20196;-53
2024/01/18 11:30:04;;;;;;;0.07;0.07;;;;;;;3.22;100.00;97203.97;5013398;28;20209;-53
2024/01/18 11:32:55;;;;;;;0.10;0.10;;;;;;;3.04;100.00;97217.31;5013567;28;20313;-52
2024/01/18 11:35:42;;;;;;;0.00;0.00;;;;;;;3.45;100.00;97213.75;5013530;28;20270;-53
2024/01/18 11:38:32;;;;;;;0.10;0.10;;;;;;;3.59;100.00;97218.91;5032695;28;20279;-53
2024/01/18 11:41:26;;;;;;;0.00;0.00;;;;;;;4.06;100.00;97220.06;5032981;28;20212;-53
2024/01/18 11:44:13;;;;;;;0.10;0.10;;;;;;;3.71;100.00;97227.69;5033165;28;20188;-53
2024/01/18 11:47:00;;;;;;;0.10;0.10;;;;;;;4.36;100.00;97222.34;5033144;28;20316;-52
2024/01/18 11:49:47;;;;;;;0.10;0.10;;;;;;;4.54;100.00;97220.22;5033105;28;20196;-52
2024/01/18 11:52:36;;;;;;;0.10;0.10;;;;;;;5.12;100.00;97226.50;5033170;28;20197;-53
2024/01/18 11:55:24;;;;;;;0.10;0.10;;;;;;;6.07;100.00;97230.72;5032950;28;20277;-53
2024/01/18 11:58:11;;;;;;;0.10;0.10;;;;;;;6.46;100.00;97231.22;5031803;28;20200;-52
2024/01/18 12:00:58;;;;;;;0.10;0.10;;;;;;;6.02;98.34;97246.88;5032804;28;20228;-53
2024/01/18 12:03:45;;;;;;;0.00;0.00;;;;;;;5.37;100.00;97241.28;5032675;28;20225;-53
2024/01/18 12:06:33;;;;;;;0.10;0.10;;;;;;;5.51;100.00;97237.63;5032737;28;20204;-53
2024/01/18 12:09:21;;;;;;;0.10;0.10;;;;;;;6.02;96.86;97241.59;5047706;28;20199;-52
2024/01/18 12:12:09;;;;;;;0.00;0.00;;;;;;;7.45;88.24;97245.13;5051303;28;20209;-52
2024/01/18 12:14:57;;;;;;;0.00;0.00;;;;;;;9.50;73.21;97243.28;5052433;28;20200;-52
2024/01/18 12:17:44;;;;;;;0.10;0.10;;;;;;;10.12;62.79;97251.69;5045365;28;20227;-53
2024/01/18 12:20:31;;;;;;;0.10;0.10;;;;;;;9.99;59.17;97244.91;5032327;28;20287;-52
2024/01/18 12:23:18;;;;;;;0.10;0.10;;;;;;;11.57;55.33;97243.06;5032517;28;20311;-53
2024/01/18 12:26:05;;;;;;;0.10;0.10;;;;;;;11.59;51.72;97243.78;5032638;28;20200;-53
2024/01/18 12:28:52;;;;;;;0.10;0.10;;;;;;;10.99;52.48;97251.41;5041931;28;20204;-53
2024/01/18 12:31:41;;;;;;;0.00;0.00;;;;;;;12.53;50.05;97249.31;5052111;28;20323;-53
2024/01/18 12:34:29;;;;;;;0.10;0.10;;;;;;;12.55;48.55;97256.16;5055948;28;20254;-53
2024/01/18 12:37:16;;;;;;;0.10;0.10;;;;;;;13.69;45.01;97253.06;5056175;28;20188;-53
2024/01/18 12:40:04;;;;;;;0.10;0.10;;;;;;;13.85;45.42;97253.06;5016192;28;20738;-53
2024/01/18 12:42:52;;;;;;;0.10;0.10;;;;;;;15.95;41.51;97249.06;5015239;28;20676;-54
2024/01/18 12:45:42;;;;;;;0.10;0.10;;;;;;;15.27;41.64;97249.78;5016329;28;20248;-54
2024/01/18 12:48:31;;;;;;;0.00;0.00;;;;;;;15.88;39.65;97240.91;5008800;28;20212;-54
2024/01/18 12:51:19;;;;;;;0.00;0.00;;;;;;;14.51;40.24;97249.41;5036272;28;20217;-54
2024/01/18 12:54:07;;;;;;;0.10;0.10;;;;;;;13.47;43.13;97249.19;5035693;28;20200;-54
2024/01/18 12:56:58;;;;;;;0.00;0.00;;;;;;;11.68;44.98;97272.88;5034972;28;20201;-54
2024/01/18 12:59:45;;;;;;;0.10;0.10;;;;;;;10.14;49.12;97278.88;5053612;28;20208;-54
2024/01/18 13:02:32;;;;;;;0.03;0.03;;;;;;;9.89;50.64;97291.69;5044928;28;20228;-54
2024/01/18 13:05:20;;;;;;;0.10;0.10;;;;;;;9.86;51.98;97307.00;5036135;28;20359;-54
2024/01/18 13:08:07;;;;;;;0.10;0.10;;;;;;;9.46;54.73;97306.16;5039941;28;20192;-54
2024/01/18 13:10:54;;;;;;;0.00;0.00;;;;;;;10.01;53.88;97313.53;5055618;28;20240;-54